createdAt,value
2023-04-22T00:02:01.872Z,98575.91
2023-04-22T00:04:29.091Z,98571.75
2023-04-22T00:06:56.662Z,98568.75
2023-04-22T00:09:24.017Z,98570.03
2023-04-22T00:11:50.599Z,98568.56
2023-04-22T00:14:17.198Z,98568.28
2023-04-22T00:16:43.853Z,98566.38
2023-04-22T00:19:10.484Z,98563.66
2023-04-22T00:21:37.056Z,98564.13
2023-04-22T00:24:03.687Z,98568.09
2023-04-22T00:26:30.263Z,98559.03
2023-04-22T00:28:57.295Z,98554.88
2023-04-22T00:31:23.879Z,98554.75
2023-04-22T00:33:50.523Z,98552.50
2023-04-22T00:36:17.080Z,98551.06
2023-04-22T00:38:50.001Z,98554.50
2023-04-22T00:41:17.014Z,98551.16
2023-04-22T00:43:43.974Z,98557.16
2023-04-22T00:46:10.574Z,98562.41
2023-04-22T00:48:41.313Z,98558.25
2023-04-22T00:51:07.988Z,98556.66
2023-04-22T00:53:34.557Z,98555.69
2023-04-22T00:56:01.205Z,98559.03
2023-04-22T00:58:29.851Z,98560.78
2023-04-22T01:00:56.849Z,98556.78
2023-04-22T01:03:24.428Z,98560.91
2023-04-22T01:05:51.262Z,98561.22
2023-04-22T01:08:17.890Z,98558.34
2023-04-22T01:10:44.449Z,98548.63
2023-04-22T01:13:11.099Z,98544.69
2023-04-22T01:15:37.974Z,98554.50
2023-04-22T01:18:04.814Z,98553.22
2023-04-22T01:20:31.909Z,98552.25
2023-04-22T01:23:03.139Z,98553.00
2023-04-22T01:25:29.882Z,98552.03
2023-04-22T01:27:57.014Z,98552.16
2023-04-22T01:30:23.633Z,98555.00
2023-04-22T01:32:50.701Z,98554.53
2023-04-22T01:35:17.264Z,98552.94
2023-04-22T01:37:44.574Z,98559.44
2023-04-22T01:40:11.719Z,98558.16
2023-04-22T01:42:39.085Z,98562.25
2023-04-22T01:45:06.107Z,98563.34
2023-04-22T01:47:32.626Z,98561.75
2023-04-22T01:49:59.141Z,98573.16
2023-04-22T01:52:27.679Z,98570.78
2023-04-22T01:54:55.151Z,98572.19
2023-04-22T01:57:21.664Z,98579.00
2023-04-22T01:59:48.175Z,98573.91
2023-04-22T02:02:14.804Z,98579.00
2023-04-22T02:04:41.380Z,98574.41
2023-04-22T02:07:07.968Z,98577.59
2023-04-22T02:09:34.864Z,98576.19
2023-04-22T02:12:01.638Z,98567.78
2023-04-22T02:14:28.249Z,98568.25
2023-04-22T02:16:54.835Z,98562.56
2023-04-22T02:19:21.426Z,98574.63
2023-04-22T02:21:47.994Z,98569.91
2023-04-22T02:24:14.654Z,98577.69
2023-04-22T02:26:41.553Z,98568.50
2023-04-22T02:29:08.055Z,98578.97
2023-04-22T02:31:34.688Z,98577.56
2023-04-22T02:34:01.270Z,98578.06
2023-04-22T02:36:28.730Z,98579.63
2023-04-22T02:38:55.603Z,98578.06
2023-04-22T02:41:22.183Z,98568.84
2023-04-22T02:43:48.936Z,98563.63
2023-04-22T02:46:18.806Z,98557.91
2023-04-22T02:48:45.424Z,98561.41
2023-04-22T02:51:12.094Z,98564.41
2023-04-22T02:53:38.643Z,98562.03
2023-04-22T02:56:05.760Z,98558.06
2023-04-22T02:58:32.395Z,98550.28
2023-04-22T03:00:59.158Z,98545.19
2023-04-22T03:03:26.669Z,98537.09
2023-04-22T03:05:53.410Z,98542.00
2023-04-22T03:08:20.383Z,98541.03
2023-04-22T03:10:46.911Z,98540.06
2023-04-22T03:13:14.354Z,98541.47
2023-04-22T03:15:41.498Z,98536.06
2023-04-22T03:18:08.724Z,98526.06
2023-04-22T03:20:36.117Z,98539.75
2023-04-22T03:23:02.756Z,98531.84
2023-04-22T03:25:29.366Z,98532.63
2023-04-22T03:27:56.047Z,98536.13
2023-04-22T03:30:22.794Z,98521.34
2023-04-22T03:32:49.441Z,98529.13
2023-04-22T03:35:16.216Z,98528.31
2023-04-22T03:37:42.863Z,98531.34
2023-04-22T03:40:10.149Z,98536.25
2023-04-22T03:42:36.640Z,98546.25
2023-04-22T03:45:03.654Z,98539.06
2023-04-22T03:47:30.360Z,98542.38
2023-04-22T03:49:57.051Z,98558.09
2023-04-22T03:52:23.615Z,98559.81
2023-04-22T03:54:50.264Z,98561.22
2023-04-22T03:57:16.822Z,98547.88
2023-04-22T03:59:43.334Z,98546.28
2023-04-22T04:02:09.912Z,98543.09
2023-04-22T04:04:37.082Z,98546.09
2023-04-22T04:07:04.030Z,98539.72
2023-04-22T04:09:30.642Z,98540.66
2023-04-22T04:11:58.144Z,98546.16
2023-04-22T04:14:24.930Z,98542.81
2023-04-22T04:16:51.522Z,98545.59
2023-04-22T04:19:18.115Z,98544.16
2023-04-22T04:21:45.437Z,98543.66
2023-04-22T04:24:12.062Z,98534.28
2023-04-22T04:26:38.819Z,98537.28
2023-04-22T04:29:06.357Z,98531.09
2023-04-22T04:31:34.055Z,98516.50
2023-04-22T04:34:00.955Z,98519.53
2023-04-22T04:36:29.063Z,98529.00
2023-04-22T04:38:56.448Z,98527.13
2023-04-22T04:41:23.470Z,98536.31
2023-04-22T04:43:50.449Z,98534.09
2023-04-22T04:46:16.969Z,98531.91
2023-04-22T04:48:43.937Z,98538.25
2023-04-22T04:51:11.693Z,98541.25
2023-04-22T04:53:38.302Z,98537.72
2023-04-22T04:56:05.147Z,98525.78
2023-04-22T04:58:31.724Z,98531.97
2023-04-22T05:00:58.280Z,98532.06
2023-04-22T05:03:24.945Z,98529.59
2023-04-22T05:05:51.821Z,98533.28
2023-04-22T05:08:18.360Z,98538.22
2023-04-22T05:10:45.201Z,98541.06
2023-04-22T05:13:11.707Z,98540.91
2023-04-22T05:15:38.320Z,98542.81
2023-04-22T05:18:06.365Z,98536.94
2023-04-22T05:20:35.387Z,98539.63
2023-04-22T05:23:02.698Z,98542.50
2023-04-22T05:25:29.289Z,98545.19
2023-04-22T05:27:55.831Z,98544.88
2023-04-22T05:30:22.421Z,98542.50
2023-04-22T05:32:49.150Z,98539.97
2023-04-22T05:35:15.786Z,98548.88
2023-04-22T05:37:42.308Z,98546.00
2023-04-22T05:40:09.446Z,98544.56
2023-04-22T05:42:36.005Z,98554.91
2023-04-22T05:45:02.537Z,98551.09
2023-04-22T05:47:30.319Z,98552.63
2023-04-22T05:49:56.959Z,98548.66
2023-04-22T05:52:23.470Z,98553.22
2023-04-22T05:54:50.053Z,98558.94
2023-04-22T05:57:16.702Z,98549.38
2023-04-22T05:59:43.435Z,98549.84
2023-04-22T06:02:10.368Z,98553.50
2023-04-22T06:04:37.945Z,98550.59
2023-04-22T06:07:04.916Z,98557.59
2023-04-22T06:09:31.513Z,98553.78
2023-04-22T06:11:58.266Z,98556.66
2023-04-22T06:14:24.825Z,98563.81
2023-04-22T06:16:52.884Z,98560.56
2023-04-22T06:19:19.862Z,98563.72
2023-04-22T06:21:46.424Z,98568.31
2023-04-22T06:24:13.024Z,98553.59
2023-04-22T06:26:39.641Z,98549.72
2023-04-22T06:29:06.200Z,98549.97
2023-04-22T06:31:33.111Z,98547.53
2023-04-22T06:33:59.657Z,98547.84
2023-04-22T06:36:30.276Z,98556.22
2023-04-22T06:38:57.234Z,98557.16
2023-04-22T06:41:23.846Z,98558.22
2023-04-22T06:43:50.526Z,98546.94
2023-04-22T06:46:17.793Z,98548.00
2023-04-22T06:48:44.389Z,98555.19
2023-04-22T06:51:10.981Z,98551.59
2023-04-22T06:53:37.570Z,98551.41
2023-04-22T06:56:05.076Z,98561.25
2023-04-22T06:58:31.678Z,98547.03
2023-04-22T07:00:58.355Z,98554.63
2023-04-22T07:03:26.216Z,98555.81
2023-04-22T07:05:53.022Z,98545.31
2023-04-22T07:08:19.828Z,98549.50
2023-04-22T07:10:46.388Z,98551.34
2023-04-22T07:13:12.988Z,98545.47
2023-04-22T07:15:39.521Z,98544.25
2023-04-22T07:18:06.248Z,98545.88
2023-04-22T07:20:32.894Z,98540.25
2023-04-22T07:22:59.425Z,98542.03
2023-04-22T07:25:25.949Z,98540.31
2023-04-22T07:27:52.536Z,98542.44
2023-04-22T07:30:19.129Z,98540.13
2023-04-22T07:32:48.225Z,98540.19
2023-04-22T07:35:15.458Z,98537.78
2023-04-22T07:37:42.104Z,98546.97
2023-04-22T07:40:11.907Z,98533.91
2023-04-22T07:42:40.143Z,98537.84
2023-04-22T07:45:07.621Z,98549.53
2023-04-22T07:47:34.473Z,98558.72
2023-04-22T07:50:01.081Z,98551.94
2023-04-22T07:52:27.678Z,98555.88
2023-04-22T07:54:54.261Z,98558.22
2023-04-22T07:57:22.553Z,98558.44
2023-04-22T07:59:49.872Z,98548.09
2023-04-22T08:02:16.477Z,98554.31
2023-04-22T08:04:43.590Z,98558.53
2023-04-22T08:07:26.924Z,98569.16
2023-04-22T08:09:57.023Z,98564.22
2023-04-22T08:12:23.854Z,98557.81
2023-04-22T08:14:50.882Z,98558.94
2023-04-22T08:17:21.700Z,98557.81
2023-04-22T08:19:49.078Z,98563.88
2023-04-22T08:22:16.178Z,98558.41
2023-04-22T08:24:42.755Z,98570.91
2023-04-22T08:27:09.360Z,98557.28
2023-04-22T08:29:36.150Z,98572.13
2023-04-22T08:32:02.761Z,98572.31
2023-04-22T08:34:29.310Z,98553.69
2023-04-22T08:36:55.897Z,98558.91
2023-04-22T08:39:22.440Z,98563.00
2023-04-22T08:41:50.580Z,98554.75
2023-04-22T08:44:17.371Z,98569.84
2023-04-22T08:46:47.002Z,98559.88
2023-04-22T08:49:17.175Z,98554.50
2023-04-22T08:51:44.780Z,98561.78
2023-04-22T08:54:12.095Z,98561.41
2023-04-22T08:56:43.863Z,98558.88
2023-04-22T08:59:11.876Z,98561.44
2023-04-22T09:01:41.291Z,98558.31
2023-04-22T09:04:10.631Z,98550.06
2023-04-22T09:06:38.856Z,98548.41
2023-04-22T09:09:05.521Z,98551.69
2023-04-22T09:11:33.840Z,98556.09
2023-04-22T09:14:00.388Z,98546.72
2023-04-22T09:16:26.998Z,98551.38
2023-04-22T09:18:53.650Z,98561.84
2023-04-22T09:21:20.346Z,98559.25
2023-04-22T09:23:52.247Z,98553.06
2023-04-22T09:26:26.470Z,98559.81
2023-04-22T09:28:55.440Z,98561.19
2023-04-22T09:31:24.058Z,98564.97
2023-04-22T09:33:58.742Z,98560.03
2023-04-22T09:36:29.338Z,98569.97
2023-04-22T09:38:58.616Z,98584.66
2023-04-22T09:41:41.087Z,98585.25
2023-04-22T09:44:15.874Z,98585.81
2023-04-22T09:46:44.087Z,98584.97
2023-04-22T09:49:10.921Z,98581.66
2023-04-22T09:51:41.304Z,98589.31
2023-04-22T09:54:10.301Z,98576.66
2023-04-22T09:56:48.373Z,98585.84
2023-04-22T09:59:20.558Z,98582.16
2023-04-22T10:01:47.401Z,98584.75
2023-04-22T10:04:15.089Z,98588.03
2023-04-22T10:06:44.054Z,98582.13
2023-04-22T10:09:11.120Z,98580.25
2023-04-22T10:11:38.242Z,98589.38
2023-04-22T10:14:05.446Z,98582.50
2023-04-22T10:16:34.780Z,98592.41
2023-04-22T10:19:04.588Z,98595.44
2023-04-22T10:21:32.570Z,98595.03
2023-04-22T10:24:00.812Z,98596.84
2023-04-22T10:26:41.400Z,98598.75
2023-04-22T10:29:10.797Z,98604.81
2023-04-22T10:31:40.129Z,98605.97
2023-04-22T10:34:14.675Z,98608.69
2023-04-22T10:36:53.195Z,98609.59
2023-04-22T10:39:22.075Z,98603.53
2023-04-22T10:41:58.294Z,98613.59
2023-04-22T10:44:29.041Z,98608.47
2023-04-22T10:46:56.763Z,98624.97
2023-04-22T10:49:25.613Z,98608.63
2023-04-22T10:51:54.291Z,98615.66
2023-04-22T10:54:32.346Z,98608.78
2023-04-22T10:57:10.882Z,98612.41
2023-04-22T10:59:50.096Z,98614.25
2023-04-22T11:02:18.139Z,98602.38
2023-04-22T11:04:45.212Z,98611.41
2023-04-22T11:07:22.758Z,98609.94
2023-04-22T11:09:59.757Z,98620.84
2023-04-22T11:12:35.067Z,98606.16
2023-04-22T11:15:05.684Z,98611.78
2023-04-22T11:17:32.878Z,98606.91
2023-04-22T11:20:00.013Z,98611.56
2023-04-22T11:22:27.026Z,98618.50
2023-04-22T11:24:57.797Z,98621.19
2023-04-22T11:27:27.661Z,98622.75
2023-04-22T11:30:04.801Z,98627.00
2023-04-22T11:32:32.162Z,98617.16
2023-04-22T11:34:58.828Z,98619.38
2023-04-22T11:37:25.577Z,98618.53
2023-04-22T11:40:13.517Z,98618.84
2023-04-22T11:42:39.732Z,98614.09
2023-04-22T11:45:07.704Z,98608.47
2023-04-22T11:47:35.339Z,98614.31
2023-04-22T11:50:06.919Z,98606.63
2023-04-22T11:52:45.737Z,98605.88
2023-04-22T11:55:30.149Z,98608.28
2023-04-22T11:57:57.899Z,98610.75
2023-04-22T12:00:33.243Z,98605.38
2023-04-22T12:03:15.578Z,98613.34
2023-04-22T12:05:44.870Z,98613.38
2023-04-22T12:08:16.602Z,98614.94
2023-04-22T12:10:47.624Z,98607.31
2023-04-22T12:13:31.548Z,98610.38
2023-04-22T12:15:59.856Z,98602.25
2023-04-22T12:18:37.484Z,98611.63
2023-04-22T12:21:07.065Z,98607.97
2023-04-22T12:23:48.507Z,98586.31
2023-04-22T12:26:16.592Z,98595.56
2023-04-22T12:28:44.152Z,98598.00
2023-04-22T12:31:11.547Z,98598.56
2023-04-22T12:33:38.609Z,98612.34
2023-04-22T12:36:05.947Z,98610.31
2023-04-22T12:38:32.827Z,98602.84
2023-04-22T12:40:59.701Z,98613.63
2023-04-22T12:43:26.427Z,98601.66
2023-04-22T12:45:52.988Z,98607.28
2023-04-22T12:48:19.645Z,98598.03
2023-04-22T12:50:46.433Z,98605.59
2023-04-22T12:53:13.092Z,98594.78
2023-04-22T12:55:39.862Z,98601.91
2023-04-22T12:58:06.499Z,98591.63
2023-04-22T13:00:33.479Z,98590.97
2023-04-22T13:03:00.311Z,98585.03
2023-04-22T13:05:27.021Z,98579.47
2023-04-22T13:08:05.723Z,98573.03
2023-04-22T13:10:33.614Z,98576.34
2023-04-22T13:13:10.225Z,98577.88
2023-04-22T13:15:42.382Z,98591.63
2023-04-22T13:18:09.084Z,98588.81
2023-04-22T13:20:36.088Z,98582.50
2023-04-22T13:23:04.714Z,98583.97
2023-04-22T13:25:31.771Z,98595.84
2023-04-22T13:27:58.327Z,98591.19
2023-04-22T13:30:24.914Z,98588.13
2023-04-22T13:32:52.053Z,98584.81
2023-04-22T13:35:18.712Z,98583.69
2023-04-22T13:37:46.322Z,98581.56
2023-04-22T13:40:13.141Z,98591.09
2023-04-22T13:42:39.869Z,98589.13
2023-04-22T13:45:07.545Z,98596.78
2023-04-22T13:47:34.196Z,98593.91
2023-04-22T13:50:01.922Z,98588.34
2023-04-22T13:52:29.137Z,98595.97
2023-04-22T13:54:55.808Z,98593.09
2023-04-22T13:57:23.372Z,98596.34
2023-04-22T13:59:50.489Z,98591.00
2023-04-22T14:02:17.296Z,98595.75
2023-04-22T14:04:43.967Z,98607.13
2023-04-22T14:07:11.255Z,98615.28
2023-04-22T14:09:38.153Z,98619.09
2023-04-22T14:12:06.679Z,98621.63
2023-04-22T14:14:33.276Z,98622.69
2023-04-22T14:17:00.165Z,98629.38
2023-04-22T14:19:29.024Z,98618.75
2023-04-22T14:21:56.275Z,98622.03
2023-04-22T14:24:24.382Z,98621.41
2023-04-22T14:26:52.535Z,98629.03
2023-04-22T14:29:19.522Z,98634.75
2023-04-22T14:31:46.456Z,98633.50
2023-04-22T14:34:13.084Z,98635.34
2023-04-22T14:36:39.616Z,98631.75
2023-04-22T14:39:06.137Z,98630.34
2023-04-22T14:41:32.733Z,98627.34
2023-04-22T14:43:59.306Z,98626.22
2023-04-22T14:46:26.004Z,98624.19
2023-04-22T14:48:52.675Z,98619.88
2023-04-22T14:51:19.255Z,98621.03
2023-04-22T14:53:45.854Z,98627.94
2023-04-22T14:56:12.634Z,98631.75
2023-04-22T14:58:39.152Z,98626.72
2023-04-22T15:01:07.380Z,98622.16
2023-04-22T15:03:35.889Z,98629.63
2023-04-22T15:06:03.199Z,98624.19
2023-04-22T15:08:29.842Z,98628.75
2023-04-22T15:10:59.686Z,98627.94
2023-04-22T15:13:26.314Z,98635.69
2023-04-22T15:15:52.991Z,98630.59
2023-04-22T15:18:19.771Z,98632.50
2023-04-22T15:20:46.332Z,98629.25
2023-04-22T15:23:12.980Z,98639.47
2023-04-22T15:25:39.759Z,98634.69
2023-04-22T15:28:06.353Z,98640.94
2023-04-22T15:30:32.949Z,98636.38
2023-04-22T15:32:59.577Z,98640.63
2023-04-22T15:35:26.202Z,98640.25
2023-04-22T15:37:54.162Z,98638.78
2023-04-22T15:40:20.979Z,98637.47
2023-04-22T15:42:47.527Z,98636.34
2023-04-22T15:45:14.099Z,98625.00
2023-04-22T15:47:41.280Z,98634.38
2023-04-22T15:50:09.745Z,98643.09
2023-04-22T15:52:38.262Z,98630.63
2023-04-22T15:55:07.844Z,98631.78
2023-04-22T15:57:35.518Z,98640.72
2023-04-22T16:00:11.863Z,98628.22
2023-04-22T16:02:41.018Z,98637.56
2023-04-22T16:05:08.140Z,98637.81
2023-04-22T16:07:34.974Z,98639.84
2023-04-22T16:10:02.144Z,98646.19
2023-04-22T16:12:28.894Z,98643.56
2023-04-22T16:14:55.452Z,98641.63
2023-04-22T16:17:22.134Z,98643.09
2023-04-22T16:19:49.077Z,98643.22
2023-04-22T16:22:15.687Z,98646.47
2023-04-22T16:24:44.184Z,98656.31
2023-04-22T16:27:16.428Z,98652.19
2023-04-22T16:29:43.725Z,98646.50
2023-04-22T16:32:10.838Z,98646.97
2023-04-22T16:34:38.390Z,98642.97
2023-04-22T16:37:05.610Z,98644.38
2023-04-22T16:39:32.445Z,98638.81
2023-04-22T16:41:59.200Z,98638.03
2023-04-22T16:44:25.834Z,98643.13
2023-04-22T16:46:52.422Z,98637.59
2023-04-22T16:49:18.991Z,98639.25
2023-04-22T16:51:45.736Z,98639.06
2023-04-22T16:54:12.398Z,98646.69
2023-04-22T16:56:38.907Z,98639.56
2023-04-22T16:59:05.499Z,98641.75
2023-04-22T17:01:32.103Z,98639.38
2023-04-22T17:03:58.977Z,98637.78
2023-04-22T17:06:27.452Z,98636.00
2023-04-22T17:08:54.143Z,98632.63
2023-04-22T17:11:20.670Z,98631.75
2023-04-22T17:13:47.184Z,98630.84
2023-04-22T17:16:14.161Z,98629.97
2023-04-22T17:18:40.822Z,98624.72
2023-04-22T17:21:07.379Z,98629.66
2023-04-22T17:23:35.721Z,98621.69
2023-04-22T17:26:02.271Z,98623.22
2023-04-22T17:28:28.768Z,98620.03
2023-04-22T17:30:55.392Z,98620.38
2023-04-22T17:33:22.074Z,98624.19
2023-04-22T17:35:48.624Z,98626.03
2023-04-22T17:38:15.431Z,98627.41
2023-04-22T17:40:43.771Z,98637.84
2023-04-22T17:43:10.594Z,98655.53
2023-04-22T17:45:37.145Z,98662.03
2023-04-22T17:48:03.841Z,98656.00
2023-04-22T17:50:30.627Z,98649.22
2023-04-22T17:52:57.269Z,98654.22
2023-04-22T17:55:23.829Z,98655.78
2023-04-22T17:57:50.374Z,98652.84
2023-04-22T18:00:18.123Z,98664.69
2023-04-22T18:02:44.817Z,98677.28
2023-04-22T18:05:11.517Z,98657.56
2023-04-22T18:07:38.015Z,98674.63
2023-04-22T18:10:04.928Z,98668.91
2023-04-22T18:12:31.546Z,98668.34
2023-04-22T18:14:58.633Z,98672.66
2023-04-22T18:17:25.255Z,98663.50
2023-04-22T18:20:02.674Z,98664.75
2023-04-22T18:22:33.001Z,98668.06
2023-04-22T18:25:01.908Z,98671.69
2023-04-22T18:27:28.709Z,98676.00
2023-04-22T18:29:55.318Z,98670.22
2023-04-22T18:32:21.923Z,98680.44
2023-04-22T18:34:48.493Z,98681.22
2023-04-22T18:37:15.021Z,98675.47
2023-04-22T18:39:41.520Z,98684.75
2023-04-22T18:42:08.115Z,98679.31
2023-04-22T18:44:35.579Z,98680.09
2023-04-22T18:47:02.101Z,98680.75
2023-04-22T18:49:28.622Z,98683.69
2023-04-22T18:51:55.198Z,98681.97
2023-04-22T18:54:21.771Z,98685.03
2023-04-22T18:56:48.339Z,98694.63
2023-04-22T18:59:14.864Z,98701.97
2023-04-22T19:01:41.602Z,98706.50
2023-04-22T19:04:08.279Z,98702.53
2023-04-22T19:06:35.085Z,98708.16
2023-04-22T19:09:01.741Z,98708.81
2023-04-22T19:11:28.449Z,98712.19
2023-04-22T19:13:55.007Z,98707.44
2023-04-22T19:16:23.641Z,98714.31
2023-04-22T19:18:51.607Z,98718.03
2023-04-22T19:21:19.799Z,98708.63
2023-04-22T19:23:47.010Z,98707.34
2023-04-22T19:26:13.601Z,98712.00
2023-04-22T19:28:46.940Z,98712.22
2023-04-22T19:31:14.365Z,98713.66
2023-04-22T19:33:41.130Z,98720.56
2023-04-22T19:36:07.722Z,98725.50
2023-04-22T19:38:34.954Z,98725.38
2023-04-22T19:41:01.813Z,98726.81
2023-04-22T19:43:28.413Z,98723.16
2023-04-22T19:45:55.067Z,98725.28
2023-04-22T19:48:22.028Z,98729.91
2023-04-22T19:50:49.291Z,98733.09
2023-04-22T19:53:17.865Z,98734.03
2023-04-22T19:55:45.200Z,98735.16
2023-04-22T19:58:12.481Z,98735.34
2023-04-22T20:00:39.781Z,98731.03
2023-04-22T20:03:07.236Z,98738.22
2023-04-22T20:05:34.212Z,98738.88
2023-04-22T20:08:01.890Z,98733.63
2023-04-22T20:10:29.121Z,98737.66
2023-04-22T20:12:56.097Z,98744.84
2023-04-22T20:15:23.099Z,98739.91
2023-04-22T20:17:50.299Z,98746.75
2023-04-22T20:20:17.818Z,98733.03
2023-04-22T20:22:45.989Z,98742.66
2023-04-22T20:25:14.994Z,98745.00
2023-04-22T20:27:41.970Z,98739.28
2023-04-22T20:30:09.950Z,98735.13
2023-04-22T20:32:36.969Z,98735.13
2023-04-22T20:35:04.614Z,98738.97
2023-04-22T20:37:31.931Z,98742.97
2023-04-22T20:40:01.893Z,98741.25
2023-04-22T20:42:29.017Z,98738.19
2023-04-22T20:44:56.227Z,98750.31
2023-04-22T20:47:22.740Z,98754.16
2023-04-22T20:49:49.348Z,98748.56
2023-04-22T20:52:16.435Z,98746.03
2023-04-22T20:54:43.458Z,98746.03
2023-04-22T20:57:10.181Z,98738.22
2023-04-22T20:59:36.980Z,98739.69
2023-04-22T21:02:07.194Z,98733.16
2023-04-22T21:04:34.668Z,98736.50
2023-04-22T21:07:04.058Z,98738.09
2023-04-22T21:09:32.704Z,98738.09
2023-04-22T21:11:59.655Z,98727.72
2023-04-22T21:14:26.948Z,98728.19
2023-04-22T21:17:01.500Z,98721.16
2023-04-22T21:19:34.642Z,98716.88
2023-04-22T21:22:06.218Z,98725.00
2023-04-22T21:24:34.978Z,98725.16
2023-04-22T21:27:02.035Z,98720.88
2023-04-22T21:29:29.076Z,98724.69
2023-04-22T21:32:08.075Z,98726.16
2023-04-22T21:34:35.870Z,98716.75
2023-04-22T21:37:02.707Z,98721.84
2023-04-22T21:39:29.709Z,98721.50
2023-04-22T21:41:56.716Z,98727.41
2023-04-22T21:44:23.272Z,98734.41
2023-04-22T21:46:50.054Z,98737.78
2023-04-22T21:49:16.616Z,98742.44
2023-04-22T21:51:43.191Z,98740.84
2023-04-22T21:54:09.714Z,98735.72
2023-04-22T21:56:36.393Z,98740.69
2023-04-22T21:59:02.983Z,98743.22
2023-04-22T22:01:29.593Z,98736.56
2023-04-22T22:03:56.398Z,98738.63
2023-04-22T22:06:23.006Z,98735.25
2023-04-22T22:08:49.640Z,98743.09
2023-04-22T22:11:27.458Z,98745.78
2023-04-22T22:13:56.781Z,98755.19
2023-04-22T22:16:23.453Z,98754.69
2023-04-22T22:18:50.618Z,98764.13
2023-04-22T22:21:17.589Z,98754.69
2023-04-22T22:23:44.127Z,98752.19
2023-04-22T22:26:11.115Z,98743.56
2023-04-22T22:28:38.045Z,98739.75
2023-04-22T22:31:04.675Z,98738.16
2023-04-22T22:33:31.277Z,98735.75
2023-04-22T22:35:57.867Z,98760.16
2023-04-22T22:38:24.531Z,98761.28
2023-04-22T22:40:51.176Z,98758.75
2023-04-22T22:43:17.733Z,98755.09
2023-04-22T22:45:44.487Z,98761.16
2023-04-22T22:48:11.302Z,98756.69
2023-04-22T22:50:37.922Z,98759.25
2023-04-22T22:53:04.549Z,98767.88
2023-04-22T22:55:31.104Z,98760.88
2023-04-22T22:57:57.919Z,98758.47
2023-04-22T23:00:24.515Z,98764.19
2023-04-22T23:02:51.264Z,98761.03
2023-04-22T23:05:17.923Z,98765.19
2023-04-22T23:07:44.584Z,98761.34
2023-04-22T23:10:11.209Z,98758.97
2023-04-22T23:12:37.873Z,98762.78
2023-04-22T23:15:05.561Z,98772.84
2023-04-22T23:17:32.299Z,98764.38
2023-04-22T23:20:01.281Z,98769.16
2023-04-22T23:22:29.786Z,98760.53
2023-04-22T23:24:56.833Z,98762.63
2023-04-22T23:27:23.563Z,98765.31
2023-04-22T23:29:50.419Z,98770.09
2023-04-22T23:32:19.552Z,98765.66
2023-04-22T23:34:50.411Z,98758.00
2023-04-22T23:37:19.208Z,98761.16
2023-04-22T23:39:45.948Z,98765.00
2023-04-22T23:42:12.575Z,98762.75
2023-04-22T23:44:39.300Z,98758.28
2023-04-22T23:47:06.420Z,98756.69
2023-04-22T23:49:32.993Z,98752.41
2023-04-22T23:51:59.614Z,98756.69
2023-04-22T23:54:26.858Z,98754.78
2023-04-22T23:56:53.807Z,98758.28
2023-04-22T23:59:20.691Z,98750.63
